createdAt,value
2022-12-23T00:00:28.114Z,100161.56
2022-12-23T00:02:54.790Z,100165.22
2022-12-23T00:05:21.442Z,100159.25
2022-12-23T00:07:47.988Z,100162.03
2022-12-23T00:10:14.681Z,100166.56
2022-12-23T00:13:00.172Z,100156.94
2022-12-23T00:15:26.693Z,100161.56
2022-12-23T00:17:53.075Z,100155.78
2022-12-23T00:20:19.517Z,100154.75
2022-12-23T00:23:04.674Z,100156.44
2022-12-23T00:25:40.795Z,100165.44
2022-12-23T00:28:16.948Z,100165.91
2022-12-23T00:30:57.870Z,100162.50
2022-12-23T00:33:25.574Z,100159.81
2022-12-23T00:35:52.560Z,100161.88
2022-12-23T00:38:41.675Z,100166.13
2022-12-23T00:41:33.805Z,100160.34
2022-12-23T00:44:00.528Z,100156.34
2022-12-23T00:46:29.660Z,100153.16
2022-12-23T00:49:15.025Z,100157.41
2022-12-23T00:51:41.537Z,100150.59
2022-12-23T00:54:07.989Z,100147.31
2022-12-23T00:56:34.395Z,100146.22
2022-12-23T00:59:00.824Z,100142.91
2022-12-23T01:01:45.920Z,100143.66
2022-12-23T01:04:34.864Z,100147.41
2022-12-23T01:07:01.364Z,100151.06
2022-12-23T01:09:27.792Z,100136.59
2022-12-23T01:11:54.223Z,100150.50
2022-12-23T01:14:20.673Z,100145.69
2022-12-23T01:16:47.235Z,100140.34
2022-12-23T01:19:13.649Z,100140.69
2022-12-23T01:21:40.029Z,100140.47
2022-12-23T01:24:06.684Z,100135.97
2022-12-23T01:26:33.230Z,100128.31
2022-12-23T01:28:59.820Z,100135.37
2022-12-23T01:31:26.451Z,100129.56
2022-12-23T01:33:53.174Z,100122.25
2022-12-23T01:36:19.607Z,100126.28
2022-12-23T01:38:45.995Z,100122.88
2022-12-23T01:41:51.157Z,100130.91
2022-12-23T01:44:37.212Z,100129.53
2022-12-23T01:47:04.576Z,100117.25
2022-12-23T01:49:31.003Z,100109.34
2022-12-23T01:51:57.510Z,100113.59
2022-12-23T01:54:23.936Z,100111.13
2022-12-23T01:56:50.398Z,100119.28
2022-12-23T01:59:36.870Z,100108.59
2022-12-23T02:02:22.370Z,100103.22
2022-12-23T02:04:48.877Z,100103.00
2022-12-23T02:07:34.103Z,100105.06
2022-12-23T02:10:00.513Z,100095.34
2022-12-23T02:12:33.215Z,100101.06
2022-12-23T02:15:24.866Z,100096.91
2022-12-23T02:17:57.385Z,100097.59
2022-12-23T02:20:36.095Z,100086.81
2022-12-23T02:23:20.846Z,100089.84
2022-12-23T02:25:56.944Z,100093.50
2022-12-23T02:28:29.393Z,100086.81
2022-12-23T02:31:09.645Z,100086.81
2022-12-23T02:33:51.077Z,100096.03
2022-12-23T02:36:40.194Z,100083.81
2022-12-23T02:39:10.320Z,100084.75
2022-12-23T02:41:45.893Z,100089.31
2022-12-23T02:44:14.479Z,100086.56
2022-12-23T02:46:43.744Z,100089.03
2022-12-23T02:49:13.672Z,100080.87
2022-12-23T02:51:44.342Z,100085.72
2022-12-23T02:54:12.212Z,100085.00
2022-12-23T02:56:39.667Z,100082.75
2022-12-23T02:59:18.537Z,100085.75
2022-12-23T03:01:45.079Z,100082.56
2022-12-23T03:04:11.609Z,100096.59
2022-12-23T03:06:44.792Z,100091.41
2022-12-23T03:09:13.219Z,100088.00
2022-12-23T03:11:46.329Z,100101.47
2022-12-23T03:14:12.721Z,100103.09
2022-12-23T03:16:57.995Z,100104.72
2022-12-23T03:19:43.834Z,100099.44
2022-12-23T03:22:25.689Z,100096.50
2022-12-23T03:24:55.345Z,100093.78
2022-12-23T03:27:26.511Z,100094.09
2022-12-23T03:29:52.889Z,100091.31
2022-12-23T03:32:19.405Z,100089.81
2022-12-23T03:34:47.040Z,100079.56
2022-12-23T03:37:13.763Z,100092.19
2022-12-23T03:39:47.542Z,100084.31
2022-12-23T03:42:26.022Z,100088.88
2022-12-23T03:45:27.845Z,100093.06
2022-12-23T03:47:45.436Z,100080.16
2022-12-23T03:50:12.537Z,100081.25
2022-12-23T03:53:05.248Z,100074.09
2022-12-23T03:55:32.977Z,100064.69
2022-12-23T03:58:08.534Z,100064.06
2022-12-23T04:00:35.400Z,100061.75
2022-12-23T04:03:16.319Z,100074.06
2022-12-23T04:05:42.789Z,100064.09
2022-12-23T04:08:09.181Z,100058.31
2022-12-23T04:10:35.620Z,100064.81
2022-12-23T04:13:02.050Z,100068.50
2022-12-23T04:15:28.574Z,100064.37
2022-12-23T04:17:55.352Z,100056.03
2022-12-23T04:20:21.854Z,100054.34
2022-12-23T04:22:48.392Z,100057.16
2022-12-23T04:25:15.115Z,100054.28
2022-12-23T04:27:41.512Z,100047.16
2022-12-23T04:30:08.398Z,100044.44
2022-12-23T04:32:34.815Z,100046.19
2022-12-23T04:35:01.249Z,100045.56
2022-12-23T04:37:27.686Z,100050.25
2022-12-23T04:39:54.158Z,100046.06
2022-12-23T04:42:20.622Z,100051.69
2022-12-23T04:44:47.041Z,100055.50
2022-12-23T04:47:13.919Z,100061.28
2022-12-23T04:49:40.447Z,100066.84
2022-12-23T04:52:06.887Z,100060.13
2022-12-23T04:54:33.308Z,100058.41
2022-12-23T04:56:59.991Z,100061.50
2022-12-23T04:59:26.542Z,100063.22
2022-12-23T05:01:53.123Z,100063.53
2022-12-23T05:04:19.666Z,100062.91
2022-12-23T05:06:46.117Z,100056.97
2022-12-23T05:09:12.519Z,100051.13
2022-12-23T05:11:42.335Z,100051.97
2022-12-23T05:14:09.918Z,100057.22
2022-12-23T05:16:36.576Z,100058.59
2022-12-23T05:19:03.001Z,100065.31
2022-12-23T05:21:29.452Z,100070.25
2022-12-23T05:23:58.176Z,100076.66
2022-12-23T05:26:25.795Z,100069.22
2022-12-23T05:28:52.396Z,100067.31
2022-12-23T05:31:18.868Z,100060.91
2022-12-23T05:33:45.353Z,100056.91
2022-12-23T05:36:11.865Z,100062.59
2022-12-23T05:38:38.268Z,100061.59
2022-12-23T05:41:04.863Z,100047.97
2022-12-23T05:43:31.310Z,100053.22
2022-12-23T05:46:00.225Z,100064.00
2022-12-23T05:48:26.691Z,100059.44
2022-12-23T05:50:53.301Z,100056.91
2022-12-23T05:53:19.895Z,100057.50
2022-12-23T05:55:46.372Z,100082.19
2022-12-23T05:58:12.871Z,100084.19
2022-12-23T06:00:39.333Z,100091.28
2022-12-23T06:03:05.871Z,100092.97
2022-12-23T06:05:32.476Z,100092.69
2022-12-23T06:07:58.934Z,100084.31
2022-12-23T06:10:25.658Z,100076.47
2022-12-23T06:12:52.128Z,100081.72
2022-12-23T06:15:18.576Z,100078.94
2022-12-23T06:17:47.164Z,100079.59
2022-12-23T06:20:19.917Z,100078.06
2022-12-23T06:22:47.263Z,100078.06
2022-12-23T06:25:13.741Z,100086.41
2022-12-23T06:27:40.126Z,100080.69
2022-12-23T06:30:07.091Z,100072.22
2022-12-23T06:32:38.525Z,100077.63
2022-12-23T06:35:05.944Z,100081.69
2022-12-23T06:37:32.381Z,100075.31
2022-12-23T06:39:58.797Z,100077.91
2022-12-23T06:42:25.280Z,100068.81
2022-12-23T06:44:51.908Z,100071.34
2022-12-23T06:47:18.366Z,100087.91
2022-12-23T06:49:47.723Z,100085.91
2022-12-23T06:52:14.180Z,100087.47
2022-12-23T06:54:40.592Z,100092.16
2022-12-23T06:57:07.025Z,100099.94
2022-12-23T06:59:33.544Z,100091.13
2022-12-23T07:02:00.137Z,100096.62
2022-12-23T07:04:26.784Z,100095.69
2022-12-23T07:06:53.333Z,100100.94
2022-12-23T07:09:19.765Z,100111.84
2022-12-23T07:11:46.190Z,100120.09
2022-12-23T07:14:12.613Z,100140.44
2022-12-23T07:16:40.539Z,100136.16
2022-12-23T07:19:07.804Z,100142.75
2022-12-23T07:21:34.581Z,100141.19
2022-12-23T07:24:02.417Z,100141.84
2022-12-23T07:26:28.847Z,100134.63
2022-12-23T07:28:55.230Z,100137.75
2022-12-23T07:31:21.776Z,100139.97
2022-12-23T07:33:48.302Z,100123.75
2022-12-23T07:36:14.787Z,100120.09
2022-12-23T07:38:41.305Z,100101.44
2022-12-23T07:41:07.747Z,100090.59
2022-12-23T07:43:34.547Z,100098.53
2022-12-23T07:46:05.998Z,100109.97
2022-12-23T07:48:32.434Z,100108.16
2022-12-23T07:51:02.458Z,100111.91
2022-12-23T07:53:28.928Z,100116.62
2022-12-23T07:55:56.838Z,100115.28
2022-12-23T07:58:23.500Z,100101.59
2022-12-23T08:00:50.058Z,100098.81
2022-12-23T08:03:16.604Z,100106.16
2022-12-23T08:05:43.150Z,100103.06
2022-12-23T08:08:09.554Z,100093.56
2022-12-23T08:10:36.144Z,100095.97
2022-12-23T08:13:02.612Z,100093.12
2022-12-23T08:15:29.044Z,100099.56
2022-12-23T08:17:56.245Z,100095.75
2022-12-23T08:20:22.659Z,100090.03
2022-12-23T08:22:50.117Z,100082.38
2022-12-23T08:25:16.515Z,100074.91
2022-12-23T08:27:42.915Z,100098.44
2022-12-23T08:30:09.647Z,100091.03
2022-12-23T08:32:36.130Z,100083.28
2022-12-23T08:35:02.568Z,100089.78
2022-12-23T08:37:29.008Z,100088.94
2022-12-23T08:39:55.467Z,100085.78
2022-12-23T08:42:21.887Z,100078.13
2022-12-23T08:44:48.378Z,100086.06
2022-12-23T08:47:14.860Z,100089.59
2022-12-23T08:49:41.349Z,100080.69
2022-12-23T08:52:07.856Z,100075.28
2022-12-23T08:54:34.275Z,100073.03
2022-12-23T08:57:00.760Z,100056.88
2022-12-23T08:59:27.149Z,100048.38
2022-12-23T09:01:53.759Z,100034.09
2022-12-23T09:04:20.336Z,100021.22
2022-12-23T09:06:46.789Z,100038.19
2022-12-23T09:09:13.669Z,100057.31
2022-12-23T09:11:40.192Z,100052.91
2022-12-23T09:14:07.241Z,100058.44
2022-12-23T09:16:33.809Z,100058.16
2022-12-23T09:19:00.383Z,100063.97
2022-12-23T09:21:26.848Z,100066.78
2022-12-23T09:23:53.295Z,100064.09
2022-12-23T09:26:21.151Z,100062.12
2022-12-23T09:28:47.672Z,100065.69
2022-12-23T09:31:15.529Z,100073.59
2022-12-23T09:33:41.988Z,100074.03
2022-12-23T09:36:08.473Z,100075.88
2022-12-23T09:38:36.833Z,100072.34
2022-12-23T09:41:03.461Z,100049.81
2022-12-23T09:43:36.247Z,100054.50
2022-12-23T09:46:13.383Z,100049.22
2022-12-23T09:48:42.764Z,100043.00
2022-12-23T09:51:09.240Z,100035.66
2022-12-23T09:54:16.697Z,100036.34
2022-12-23T09:56:43.632Z,100052.66
2022-12-23T09:59:16.744Z,100056.31
2022-12-23T10:01:52.636Z,100058.88
2022-12-23T10:04:24.738Z,100055.19
2022-12-23T10:06:56.316Z,100041.72
2022-12-23T10:09:25.797Z,100037.03
2022-12-23T10:11:53.424Z,100021.31
2022-12-23T10:14:20.761Z,100013.72
2022-12-23T10:17:07.136Z,100003.63
2022-12-23T10:19:34.934Z,100004.19
2022-12-23T10:22:06.247Z,100010.13
2022-12-23T10:24:39.566Z,100007.59
2022-12-23T10:27:18.166Z,100001.94
2022-12-23T10:29:44.563Z,100007.16
2022-12-23T10:32:17.334Z,100002.75
2022-12-23T10:34:56.401Z,100009.00
2022-12-23T10:37:22.950Z,99995.38
2022-12-23T10:39:49.339Z,99987.66
2022-12-23T10:42:34.684Z,99975.91
2022-12-23T10:45:04.402Z,99974.84
2022-12-23T10:48:14.013Z,99975.88
2022-12-23T10:50:50.883Z,99970.41
2022-12-23T10:53:20.977Z,99970.97
2022-12-23T10:55:47.353Z,99972.78
2022-12-23T10:58:15.523Z,99960.66
2022-12-23T11:00:43.190Z,99971.97
2022-12-23T11:03:20.198Z,99972.31
2022-12-23T11:05:47.101Z,99986.47
2022-12-23T11:08:14.570Z,99973.13
2022-12-23T11:10:41.201Z,99982.12
2022-12-23T11:13:07.662Z,99980.75
2022-12-23T11:15:38.448Z,99981.25
2022-12-23T11:18:13.763Z,99980.53
2022-12-23T11:20:41.133Z,99979.38
2022-12-23T11:23:22.939Z,99969.34
2022-12-23T11:25:49.398Z,99975.25
2022-12-23T11:28:16.699Z,99968.00
2022-12-23T11:30:48.953Z,99977.09
2022-12-23T11:33:26.174Z,99964.59
2022-12-23T11:36:02.852Z,99959.03
2022-12-23T11:38:29.289Z,99958.38
2022-12-23T11:40:55.719Z,99967.62
2022-12-23T11:43:22.148Z,99976.13
2022-12-23T11:45:48.583Z,99975.12
2022-12-23T11:48:30.431Z,99969.34
2022-12-23T11:51:00.303Z,99974.91
2022-12-23T11:53:27.900Z,99977.59
2022-12-23T11:56:04.819Z,99974.75
2022-12-23T11:58:31.512Z,99976.44
2022-12-23T12:00:59.073Z,99984.97
2022-12-23T12:03:32.237Z,99981.69
2022-12-23T12:05:59.387Z,99979.25
2022-12-23T12:08:31.216Z,99975.44
2022-12-23T12:11:02.100Z,99976.88
2022-12-23T12:13:48.762Z,99974.25
2022-12-23T12:16:18.097Z,99989.03
2022-12-23T12:18:46.242Z,99985.59
2022-12-23T12:21:23.301Z,99986.03
2022-12-23T12:24:14.696Z,99973.47
2022-12-23T12:26:39.919Z,99977.66
2022-12-23T12:29:09.194Z,99974.88
2022-12-23T12:31:37.868Z,99977.41
2022-12-23T12:34:06.613Z,99987.84
2022-12-23T12:36:39.314Z,99986.69
2022-12-23T12:39:05.817Z,99985.06
2022-12-23T12:41:38.368Z,99976.13
2022-12-23T12:44:13.901Z,99975.25
2022-12-23T12:46:42.400Z,99968.00
2022-12-23T12:49:14.771Z,99966.88
2022-12-23T12:51:44.484Z,99973.84
2022-12-23T12:54:17.106Z,99977.09
2022-12-23T12:56:48.009Z,99973.94
2022-12-23T12:59:18.255Z,99972.28
2022-12-23T13:02:00.033Z,99968.84
2022-12-23T13:04:38.970Z,99977.87
2022-12-23T13:07:08.624Z,99983.75
2022-12-23T13:09:40.279Z,99975.81
2022-12-23T13:12:15.845Z,99988.56
2022-12-23T13:15:01.067Z,99988.75
2022-12-23T13:17:29.114Z,99986.84
2022-12-23T13:20:01.582Z,99982.81
2022-12-23T13:22:28.643Z,99989.66
2022-12-23T13:25:12.910Z,99990.06
2022-12-23T13:27:39.407Z,99983.34
2022-12-23T13:30:07.017Z,99983.94
2022-12-23T13:32:39.508Z,99996.31
2022-12-23T13:35:18.867Z,99975.75
2022-12-23T13:38:04.471Z,99980.59
2022-12-23T13:40:33.615Z,99982.03
2022-12-23T13:43:02.360Z,99983.34
2022-12-23T13:45:31.821Z,99977.22
2022-12-23T13:48:05.420Z,99986.66
2022-12-23T13:50:34.047Z,99983.41
2022-12-23T13:53:04.143Z,99992.03
2022-12-23T13:55:49.424Z,99988.69
2022-12-23T13:58:22.480Z,99986.53
2022-12-23T14:00:57.980Z,99982.28
2022-12-23T14:03:25.216Z,99983.56
2022-12-23T14:05:52.151Z,99978.63
2022-12-23T14:08:18.986Z,99978.50
2022-12-23T14:10:55.170Z,99980.19
2022-12-23T14:16:55.673Z,99986.72
2022-12-23T14:19:22.061Z,99986.72
2022-12-23T14:22:07.581Z,99994.28
2022-12-23T14:24:43.305Z,99995.81
2022-12-23T14:27:28.680Z,99996.59
2022-12-23T14:30:04.928Z,99997.16
2022-12-23T14:32:36.195Z,99999.03
2022-12-23T14:35:04.891Z,99999.19
2022-12-23T14:37:32.667Z,100004.94
2022-12-23T14:39:59.437Z,100003.44
2022-12-23T14:42:42.059Z,100007.00
2022-12-23T14:45:41.317Z,100007.47
2022-12-23T14:48:26.523Z,100014.84
2022-12-23T14:50:56.678Z,100008.31
2022-12-23T14:53:23.107Z,100010.84
2022-12-23T14:55:49.763Z,100001.72
2022-12-23T14:58:16.139Z,99993.37
2022-12-23T15:01:02.356Z,99991.88
2022-12-23T15:03:30.625Z,100007.88
2022-12-23T15:05:57.244Z,99994.78
2022-12-23T15:08:32.857Z,99996.59
2022-12-23T15:10:59.258Z,100007.94
2022-12-23T15:13:29.126Z,100011.25
2022-12-23T15:16:01.408Z,100013.34
2022-12-23T15:18:29.005Z,100018.94
2022-12-23T15:20:59.142Z,100026.19
2022-12-23T15:23:25.664Z,100040.16
2022-12-23T15:25:52.096Z,100039.47
2022-12-23T15:28:20.257Z,100033.16
2022-12-23T15:30:47.592Z,100033.25
2022-12-23T15:33:51.868Z,100013.69
2022-12-23T15:36:04.429Z,100009.50
2022-12-23T15:38:31.460Z,100023.00
2022-12-23T15:41:01.646Z,100030.19
2022-12-23T15:43:28.352Z,100029.56
2022-12-23T15:45:54.854Z,100015.06
2022-12-23T15:48:30.721Z,100017.81
2022-12-23T15:50:58.281Z,100021.84
2022-12-23T15:53:26.254Z,100008.88
2022-12-23T15:55:52.774Z,100016.87
2022-12-23T15:58:20.385Z,100022.12
2022-12-23T16:00:51.278Z,100020.75
2022-12-23T16:03:53.532Z,100016.22
2022-12-23T16:06:21.348Z,100016.22
2022-12-23T16:09:04.698Z,100009.87
2022-12-23T16:11:49.718Z,100017.59
2022-12-23T16:14:24.564Z,100005.25
2022-12-23T16:16:51.260Z,100018.75
2022-12-23T16:19:37.040Z,100020.59
2022-12-23T16:22:27.266Z,100024.16
2022-12-23T16:24:57.257Z,100017.91
2022-12-23T16:27:33.879Z,100019.91
2022-12-23T16:30:01.621Z,100012.97
2022-12-23T16:32:28.138Z,100018.38
2022-12-23T16:34:55.192Z,100007.56
2022-12-23T16:37:21.625Z,100009.91
2022-12-23T16:39:48.034Z,100017.16
2022-12-23T16:42:14.420Z,100020.69
2022-12-23T16:44:41.016Z,100010.19
2022-12-23T16:47:08.160Z,100002.81
2022-12-23T16:49:35.682Z,100009.44
2022-12-23T16:52:04.465Z,100014.59
2022-12-23T16:54:31.024Z,100008.50
2022-12-23T16:56:58.083Z,100003.66
2022-12-23T16:59:25.941Z,100006.19
2022-12-23T17:01:55.469Z,100003.47
2022-12-23T17:04:24.483Z,100007.19
2022-12-23T17:06:50.963Z,100001.09
2022-12-23T17:09:17.453Z,100002.81
2022-12-23T17:11:47.577Z,99996.69
2022-12-23T17:14:20.929Z,99995.69
2022-12-23T17:16:47.609Z,99996.88
2022-12-23T17:19:14.107Z,100007.34
2022-12-23T17:21:40.685Z,100016.97
2022-12-23T17:24:14.227Z,100009.19
2022-12-23T17:26:40.659Z,99998.94
2022-12-23T17:29:07.079Z,100003.47
2022-12-23T17:31:33.976Z,99999.09
2022-12-23T17:34:00.769Z,100004.19
2022-12-23T17:36:27.299Z,99998.09
2022-12-23T17:38:53.792Z,99982.59
2022-12-23T17:41:22.604Z,99992.50
2022-12-23T17:43:49.210Z,99983.47
2022-12-23T17:46:15.738Z,99987.53
2022-12-23T17:48:42.781Z,99997.31
2022-12-23T17:51:11.852Z,99993.91
2022-12-23T17:53:38.297Z,99986.13
2022-12-23T17:56:09.558Z,99992.06
2022-12-23T17:58:36.074Z,99991.06
2022-12-23T18:01:02.575Z,100000.84
2022-12-23T18:03:29.039Z,99997.31
2022-12-23T18:06:01.638Z,99991.53
2022-12-23T18:08:28.594Z,99987.53
2022-12-23T18:10:55.006Z,99985.66
2022-12-23T18:13:21.638Z,99981.78
2022-12-23T18:15:48.137Z,99984.22
2022-12-23T18:18:19.094Z,99984.19
2022-12-23T18:20:51.159Z,99974.78
2022-12-23T18:23:25.576Z,99984.63
2022-12-23T18:25:52.052Z,99988.81
2022-12-23T18:28:18.473Z,99990.88
2022-12-23T18:30:44.961Z,99987.47
2022-12-23T18:33:11.693Z,99978.87
2022-12-23T18:35:39.652Z,99988.56
2022-12-23T18:38:06.105Z,99982.38
2022-12-23T18:40:33.118Z,99988.44
2022-12-23T18:42:59.932Z,99988.63
2022-12-23T18:45:26.359Z,99997.91
2022-12-23T18:47:52.826Z,99997.97
2022-12-23T18:50:19.275Z,99993.13
2022-12-23T18:52:46.725Z,99999.16
2022-12-23T18:55:13.230Z,99996.50
2022-12-23T18:57:39.717Z,100009.41
2022-12-23T19:00:06.480Z,100014.38
2022-12-23T19:02:32.973Z,100002.81
2022-12-23T19:04:59.500Z,99998.22
2022-12-23T19:07:25.994Z,99997.06
2022-12-23T19:09:56.453Z,99999.00
2022-12-23T19:12:22.943Z,100001.75
2022-12-23T19:14:49.365Z,100013.37
2022-12-23T19:17:16.072Z,100012.44
2022-12-23T19:19:42.535Z,100009.75
2022-12-23T19:22:08.976Z,100021.78
2022-12-23T19:24:35.398Z,100017.31
2022-12-23T19:27:01.866Z,100014.31
2022-12-23T19:29:28.352Z,100022.09
2022-12-23T19:31:54.802Z,100024.31
2022-12-23T19:34:21.197Z,100016.25
2022-12-23T19:36:48.120Z,100028.53
2022-12-23T19:39:16.368Z,100026.81
2022-12-23T19:41:43.805Z,100028.16
2022-12-23T19:44:10.243Z,100030.34
2022-12-23T19:46:36.865Z,100026.84
2022-12-23T19:49:03.375Z,100018.62
2022-12-23T19:51:29.875Z,100021.31
2022-12-23T19:53:56.299Z,100034.94
2022-12-23T19:56:25.851Z,100040.91
2022-12-23T19:58:52.397Z,100033.81
2022-12-23T20:01:19.894Z,100033.31
2022-12-23T20:03:47.112Z,100031.09
2022-12-23T20:06:23.895Z,100042.38
2022-12-23T20:08:53.731Z,100049.22
2022-12-23T20:11:23.594Z,100048.31
2022-12-23T20:13:53.431Z,100051.94
2022-12-23T20:16:19.950Z,100055.34
2022-12-23T20:18:46.459Z,100053.47
2022-12-23T20:21:12.956Z,100047.31
2022-12-23T20:23:39.394Z,100040.41
2022-12-23T20:26:05.845Z,100046.47
2022-12-23T20:28:35.249Z,100046.22
2022-12-23T20:31:08.992Z,100041.28
2022-12-23T20:33:35.914Z,100025.38
2022-12-23T20:36:02.699Z,100029.75
2022-12-23T20:38:29.132Z,100031.97
2022-12-23T20:40:57.184Z,100019.53
2022-12-23T20:43:23.628Z,100018.78
2022-12-23T20:45:50.355Z,100011.13
2022-12-23T20:48:18.139Z,100004.94
2022-12-23T20:50:44.916Z,100000.16
2022-12-23T20:53:11.545Z,99999.94
2022-12-23T20:55:37.960Z,99999.25
2022-12-23T20:58:22.791Z,99998.09
2022-12-23T21:00:49.281Z,100002.00
2022-12-23T21:03:15.794Z,100004.81
2022-12-23T21:05:42.302Z,99995.44
2022-12-23T21:08:08.756Z,100002.00
2022-12-23T21:10:35.812Z,100006.34
2022-12-23T21:13:05.120Z,99998.97
2022-12-23T21:15:32.345Z,99998.47
2022-12-23T21:17:59.204Z,99999.81
2022-12-23T21:20:25.747Z,99998.19
2022-12-23T21:22:52.241Z,100003.44
2022-12-23T21:25:18.784Z,100012.72
2022-12-23T21:27:45.291Z,100007.03
2022-12-23T21:30:11.889Z,99993.69
2022-12-23T21:32:38.414Z,99995.41
2022-12-23T21:35:05.163Z,100000.06
2022-12-23T21:37:32.001Z,99989.03
2022-12-23T21:39:58.433Z,99981.00
2022-12-23T21:42:24.988Z,99964.25
2022-12-23T21:44:51.487Z,99974.34
2022-12-23T21:47:17.937Z,99970.06
2022-12-23T21:49:44.555Z,99969.81
2022-12-23T21:52:10.991Z,99969.81
2022-12-23T21:54:37.530Z,99972.59
2022-12-23T21:57:04.053Z,99965.09
2022-12-23T21:59:34.984Z,99953.78
2022-12-23T22:02:01.941Z,99959.88
2022-12-23T22:04:28.481Z,99959.12
2022-12-23T22:06:54.981Z,99955.84
2022-12-23T22:09:21.408Z,99937.69
2022-12-23T22:11:48.274Z,99929.72
2022-12-23T22:14:15.992Z,99913.94
2022-12-23T22:16:42.476Z,99927.16
2022-12-23T22:19:09.292Z,99919.47
2022-12-23T22:21:35.754Z,99905.00
2022-12-23T22:24:02.288Z,99894.72
2022-12-23T22:26:29.771Z,99887.66
2022-12-23T22:28:56.607Z,99882.28
2022-12-23T22:31:53.293Z,99887.16
2022-12-23T22:34:20.285Z,99889.81
2022-12-23T22:36:47.457Z,99882.72
2022-12-23T22:39:19.696Z,99889.38
2022-12-23T22:41:46.800Z,99890.59
2022-12-23T22:44:15.458Z,99887.06
2022-12-23T22:46:41.990Z,99886.19
2022-12-23T22:49:10.549Z,99876.25
2022-12-23T22:51:36.948Z,99870.41
2022-12-23T22:54:03.593Z,99872.56
2022-12-23T22:56:30.024Z,99879.47
2022-12-23T22:58:56.514Z,99882.31
2022-12-23T23:01:27.000Z,99873.34
2022-12-23T23:03:57.402Z,99865.06
2022-12-23T23:06:24.914Z,99859.09
2022-12-23T23:08:51.486Z,99872.31
2022-12-23T23:11:17.889Z,99864.31
2022-12-23T23:13:44.316Z,99869.72
2022-12-23T23:16:10.910Z,99865.75
2022-12-23T23:18:39.366Z,99870.87
2022-12-23T23:21:06.618Z,99864.78
2022-12-23T23:23:33.146Z,99871.31
2022-12-23T23:25:59.600Z,99872.44
2022-12-23T23:28:26.004Z,99875.62
2022-12-23T23:31:09.674Z,99874.53
2022-12-23T23:33:38.871Z,99879.13
2022-12-23T23:36:05.535Z,99899.03
2022-12-23T23:38:31.956Z,99891.53
2022-12-23T23:40:58.587Z,99889.72
2022-12-23T23:43:25.024Z,99885.72
2022-12-23T23:45:51.459Z,99884.13
2022-12-23T23:48:17.921Z,99867.44
2022-12-23T23:50:44.376Z,99862.09
2022-12-23T23:53:11.048Z,99853.88
2022-12-23T23:55:37.694Z,99862.84
2022-12-23T23:58:04.539Z,99853.50
